createdAt,value
2019-04-20T00:03:30.010Z,3.50
2019-04-20T00:08:36.181Z,3.17
2019-04-20T00:13:47.761Z,3.60
2019-04-20T00:18:50.286Z,3.60
2019-04-20T00:23:54.804Z,3.37
2019-04-20T00:29:20.174Z,3.33
2019-04-20T00:34:13.936Z,3.00
2019-04-20T00:39:14.976Z,3.70
2019-04-20T00:44:24.224Z,3.53
2019-04-20T00:49:38.921Z,3.53
2019-04-20T00:54:32.551Z,3.57
2019-04-20T01:00:03.106Z,3.22
2019-04-20T01:05:04.015Z,3.33
2019-04-20T01:09:58.819Z,3.07
2019-04-20T01:15:06.312Z,3.60
2019-04-20T01:20:12.768Z,3.97
2019-04-20T01:25:26.367Z,4.20
2019-04-20T01:30:32.228Z,3.33
2019-04-20T01:35:48.024Z,4.20
2019-04-20T01:40:42.207Z,4.13
2019-04-20T01:45:49.016Z,3.93
2019-04-20T01:51:02.751Z,3.70
2019-04-20T01:56:17.096Z,3.73
2019-04-20T02:01:35.450Z,3.70
2019-04-20T02:06:39.962Z,3.87
2019-04-20T02:11:48.416Z,3.93
2019-04-20T02:17:01.662Z,4.20
2019-04-20T02:22:09.791Z,3.80
2019-04-20T02:27:04.150Z,3.53
2019-04-20T02:32:38.040Z,4.07
2019-04-20T02:43:25.019Z,4.03
2019-04-20T02:48:14.071Z,4.30
2019-04-20T02:53:36.492Z,3.58
2019-04-20T02:58:23.359Z,3.95
2019-04-20T03:03:13.472Z,4.00
2019-04-20T03:08:26.284Z,4.23
2019-04-20T03:13:39.258Z,3.97
2019-04-20T03:18:40.930Z,4.10
2019-04-20T03:23:50.080Z,4.13
2019-04-20T03:29:05.589Z,3.80
2019-04-20T03:34:55.589Z,3.80
2019-04-20T03:39:23.233Z,3.77
2019-04-20T03:44:17.634Z,3.87
2019-04-20T03:49:43.889Z,4.33
2019-04-20T03:54:55.262Z,5.07
2019-04-20T04:00:35.934Z,4.77
2019-04-20T04:06:07.838Z,4.70
2019-04-20T04:11:16.053Z,4.07
2019-04-20T04:16:10.226Z,4.20
2019-04-20T04:21:21.297Z,5.20
2019-04-20T04:26:37.846Z,4.73
2019-04-20T04:31:45.721Z,4.90
2019-04-20T04:36:53.758Z,4.83
2019-04-20T04:42:07.043Z,4.70
2019-04-20T04:46:53.386Z,5.00
2019-04-20T04:51:59.299Z,4.13
2019-04-20T04:57:03.369Z,4.23
2019-04-20T05:02:08.025Z,4.63
2019-04-20T05:07:38.338Z,4.58
2019-04-20T05:12:35.039Z,4.43
2019-04-20T05:18:01.839Z,4.03
2019-04-20T05:23:21.007Z,4.13
2019-04-20T05:28:27.615Z,4.00
2019-04-20T05:33:31.479Z,4.73
2019-04-20T05:38:47.133Z,4.05
2019-04-20T05:44:19.312Z,4.27
2019-04-20T05:49:30.205Z,4.63
2019-04-20T05:54:42.943Z,4.77
2019-04-20T05:59:51.587Z,4.43
2019-04-20T06:05:00.002Z,4.60
2019-04-20T06:09:59.682Z,4.70
2019-04-20T06:15:22.308Z,4.20
2019-04-20T06:20:36.685Z,4.07
2019-04-20T06:26:11.128Z,3.73
2019-04-20T06:30:52.121Z,3.42
2019-04-20T06:36:29.279Z,3.08
2019-04-20T06:41:30.209Z,2.72
2019-04-20T06:46:29.186Z,3.58
2019-04-20T06:51:47.368Z,4.08
2019-04-20T06:57:10.259Z,4.37
2019-04-20T07:02:27.433Z,4.08
2019-04-20T07:07:28.007Z,4.22
2019-04-20T07:12:29.582Z,4.75
2019-04-20T07:17:53.289Z,4.50
2019-04-20T07:23:09.508Z,4.55
2019-04-20T07:28:05.864Z,4.62
2019-04-20T07:33:08.755Z,4.50
2019-04-20T07:43:19.739Z,4.90
2019-04-20T07:48:27.679Z,4.83
2019-04-20T07:53:30.550Z,6.20
2019-04-20T07:58:30.522Z,5.10
2019-04-20T08:03:55.645Z,6.83
2019-04-20T08:09:05.776Z,6.20
2019-04-20T08:14:22.669Z,6.15
2019-04-20T08:19:23.023Z,5.62
2019-04-20T08:24:25.564Z,6.28
2019-04-20T08:29:41.732Z,6.47
2019-04-20T08:34:50.759Z,6.25
2019-04-20T08:40:01.571Z,6.37
2019-04-20T09:09:37.560Z,6.20
2019-04-20T09:14:28.052Z,5.75
2019-04-20T09:39:08.360Z,6.30
2019-04-20T09:44:04.650Z,6.30
2019-04-20T09:49:20.081Z,6.33
2019-04-20T09:54:35.869Z,6.27
2019-04-20T09:59:45.077Z,5.40
2019-04-20T10:04:29.227Z,6.20
2019-04-20T10:09:38.196Z,5.30
2019-04-20T10:14:40.745Z,4.43
2019-04-20T10:19:46.595Z,3.77
2019-04-20T10:24:52.678Z,4.20
2019-04-20T10:30:01.127Z,4.10
2019-04-20T10:35:06.463Z,3.80
2019-04-20T10:40:13.463Z,3.63
2019-04-20T10:45:19.314Z,3.50
2019-04-20T10:50:24.989Z,3.42
2019-04-20T10:55:29.674Z,3.02
2019-04-20T11:00:45.921Z,3.05
2019-04-20T11:05:50.966Z,2.58
2019-04-20T11:11:07.149Z,3.47
2019-04-20T11:16:02.511Z,2.65
2019-04-20T11:21:07.324Z,1.90
2019-04-20T11:26:11.997Z,2.25
2019-04-20T11:31:16.957Z,2.00
2019-04-20T11:36:23.190Z,1.95
2019-04-20T11:41:31.042Z,2.15
2019-04-20T11:46:36.579Z,2.20
2019-04-20T11:51:41.700Z,1.82
2019-04-20T11:56:47.280Z,1.70
2019-04-20T12:02:30.226Z,1.45
2019-04-20T12:07:35.238Z,1.95
2019-04-20T12:12:44.352Z,2.08
2019-04-20T12:17:47.340Z,4.22
2019-04-20T12:22:52.583Z,2.00
2019-04-20T12:28:00.570Z,1.80
2019-04-20T12:33:05.608Z,2.22
2019-04-20T12:38:10.657Z,1.87
2019-04-20T12:43:15.331Z,2.15
2019-04-20T12:48:20.068Z,2.12
2019-04-20T12:53:24.608Z,1.98
2019-04-20T12:58:30.546Z,1.90
2019-04-20T13:03:35.300Z,2.10
2019-04-20T13:08:44.402Z,1.98
2019-04-20T13:14:22.158Z,1.80
2019-04-20T13:19:29.950Z,1.97
2019-04-20T13:24:36.974Z,1.82
2019-04-20T13:29:42.784Z,2.20
2019-04-20T13:34:49.737Z,1.95
2019-04-20T13:39:54.756Z,1.82
2019-04-20T13:44:59.231Z,1.98
2019-04-20T13:50:05.215Z,2.00
2019-04-20T13:55:12.761Z,1.62
2019-04-20T14:00:34.321Z,1.95
2019-04-20T14:05:38.891Z,1.90
2019-04-20T14:10:45.093Z,2.27
2019-04-20T14:15:51.242Z,2.12
2019-04-20T14:20:56.312Z,2.08
2019-04-20T14:26:03.110Z,2.33
2019-04-20T14:31:07.878Z,2.15
2019-04-20T14:36:12.844Z,2.05
2019-04-20T14:41:18.362Z,1.80
2019-04-20T14:46:23.132Z,2.08
2019-04-20T14:51:27.975Z,2.62
2019-04-20T14:56:33.617Z,1.85
2019-04-20T15:01:40.978Z,2.87
2019-04-20T15:06:46.568Z,2.40
2019-04-20T15:11:51.181Z,2.77
2019-04-20T15:16:56.381Z,2.50
2019-04-20T15:22:03.261Z,2.55
2019-04-20T15:27:08.015Z,2.47
2019-04-20T15:32:13.245Z,2.92
2019-04-20T15:37:20.283Z,2.67
2019-04-20T15:42:25.385Z,2.45
2019-04-20T15:47:30.349Z,2.62
2019-04-20T15:52:40.759Z,2.27
2019-04-20T15:57:42.535Z,2.60
2019-04-20T16:02:57.265Z,2.55
2019-04-20T16:08:18.703Z,2.47
2019-04-20T16:13:29.809Z,2.42
2019-04-20T16:18:30.886Z,2.70
2019-04-20T16:23:43.865Z,2.52
2019-04-20T16:28:50.149Z,2.53
2019-04-20T16:33:58.510Z,2.35
2019-04-20T16:39:03.686Z,2.40
2019-04-20T16:44:09.316Z,2.67
2019-04-20T16:49:14.776Z,2.95
2019-04-20T16:54:21.791Z,2.60
2019-04-20T16:59:28.136Z,3.02
2019-04-20T17:04:34.391Z,2.62
2019-04-20T17:09:41.949Z,3.02
2019-04-20T17:14:47.648Z,2.30
2019-04-20T17:19:53.511Z,2.58
2019-04-20T17:24:58.382Z,3.00
2019-04-20T17:30:27.096Z,2.72
2019-04-20T17:35:43.581Z,2.42
2019-04-20T17:41:01.539Z,2.27
2019-04-20T17:45:57.861Z,2.33
2019-04-20T17:51:16.893Z,2.60
2019-04-20T17:56:05.122Z,2.95
2019-04-20T18:01:56.471Z,2.58
2019-04-20T18:07:08.938Z,3.15
2019-04-20T18:12:03.309Z,7.70
2019-04-20T18:17:29.366Z,10.95
2019-04-20T18:22:21.530Z,9.20
2019-04-20T18:27:41.467Z,8.28
2019-04-20T18:32:35.854Z,4.05
2019-04-20T18:37:44.076Z,4.28
2019-04-20T18:43:00.029Z,3.63
2019-04-20T18:48:18.750Z,3.02
2019-04-20T18:53:03.461Z,3.55
2019-04-20T18:58:09.168Z,4.13
2019-04-20T19:03:20.240Z,3.37
2019-04-20T19:08:31.277Z,3.43
2019-04-20T19:13:47.774Z,2.50
2019-04-20T19:19:20.167Z,2.13
2019-04-20T19:24:18.314Z,2.20
2019-04-20T19:29:30.999Z,2.77
2019-04-20T19:34:41.781Z,2.20
2019-04-20T19:39:49.419Z,2.13
2019-04-20T19:44:59.556Z,2.33
2019-04-20T19:50:20.720Z,4.73
2019-04-20T19:55:16.201Z,3.47
2019-04-20T20:00:03.830Z,3.50
2019-04-20T20:05:12.134Z,3.83
2019-04-20T20:10:16.695Z,3.37
2019-04-20T20:15:29.653Z,3.27
2019-04-20T20:20:47.367Z,3.50
2019-04-20T20:25:43.164Z,2.70
2019-04-20T20:30:56.786Z,2.87
2019-04-20T20:36:01.977Z,2.87
2019-04-20T20:41:08.758Z,3.40
2019-04-20T20:46:19.815Z,3.40
2019-04-20T20:51:39.173Z,4.03
2019-04-20T20:56:25.034Z,5.53
2019-04-20T21:01:37.822Z,4.83
2019-04-20T21:06:34.773Z,4.10
2019-04-20T21:11:40.160Z,4.10
2019-04-20T21:16:53.502Z,3.70
2019-04-20T21:22:00.018Z,3.20
2019-04-20T21:27:00.663Z,3.20
2019-04-20T21:32:11.862Z,4.93
2019-04-20T21:37:17.104Z,4.43
2019-04-20T21:42:21.628Z,4.33
2019-04-20T21:47:31.435Z,4.13
2019-04-20T21:52:39.223Z,3.00
2019-04-20T21:57:44.702Z,2.80
2019-04-20T22:02:53.052Z,2.93
2019-04-20T22:07:50.479Z,2.77
2019-04-20T22:12:59.670Z,3.10
2019-04-20T22:18:09.122Z,2.87
2019-04-20T22:23:23.288Z,2.47
2019-04-20T22:28:16.507Z,3.47
2019-04-20T22:33:29.825Z,4.73
2019-04-20T22:38:37.578Z,3.27
2019-04-20T22:43:42.201Z,4.00
2019-04-20T22:48:55.247Z,5.80
2019-04-20T22:54:10.982Z,7.73
2019-04-20T22:59:06.783Z,6.00
2019-04-20T23:04:06.839Z,3.67
2019-04-20T23:09:14.710Z,3.77
2019-04-20T23:14:18.321Z,3.08
2019-04-20T23:19:34.515Z,3.03
2019-04-20T23:24:31.088Z,3.03
2019-04-20T23:29:39.507Z,2.67
2019-04-20T23:34:42.628Z,3.58
2019-04-20T23:39:50.720Z,3.97
2019-04-20T23:45:03.720Z,2.60
2019-04-20T23:50:30.656Z,2.80
2019-04-20T23:55:19.010Z,2.63
